Тирана, Albania

09:06 PM CEST на 28 Јуни, 2017 (GMT +0200)
Ura e Tabakeve | | Change Station

Elev 364 ft 41.33 °N, 19.83 °E | Updated 2 seconds ago

Умерено облачно
Умерено облачно
84.7 °F
Feels Like 87 °F
С
0.0
Ветер Променлив Ветер from Запад
Gusts 0.0 mph

Денес
High -- | Low -- °F
--% Chance of Precip.
Вчера
High -- | Low -- °F
Precip. -- инчи
Притисок 29.83 инчи
Видливост 6.2 миљи
Облаци Делумно облачно 16000 ft
Индекс на топлина 87 °F
Точка на kондензација 66 °F
Влажност 53%
Дожд 0.00 инчи
Височина на снег Not available.
5:09 AM 8:18 PM
Првиот квартал, 28% visible
METAR LATI 281850Z 30004KT 270V330 9999 SCT160 25/20 Q1010 NOSIG
Притисок 29.83 инчи
Видливост 6.2 миљи
Облаци Делумно облачно 16000 ft
Индекс на топлина 87 °F
Точка на kондензација 66 °F
Влажност 53%
Дожд 0.00 инчи
Височина на снег Not available.
5:09 AM 8:18 PM
Првиот квартал, 28% visible
METAR LATI 281850Z 30004KT 270V330 9999 SCT160 25/20 Q1010 NOSIG

Get Severe Weather Alerts

Thanks for signing up!

Be on the lookout for a verification email in your inbox.

You'll start receiving the daily forecast at 6 AM.

×

10-Day Weather Forecast

×

Almanac

Астрономијата

Jun. 28, 2017 Изгревање Заоѓање
Актуелно време
Граѓанскиот самрак
Наутички самрак
Астрономски самрак
Месечината
Должина на видливата светлина
Должина на денот
Tomorrow will be .
, % of the Moon is Illuminated

Екстреми денес

Country Highs Country Lows

Community

WunderPhotos

Category 6

Welcome to Category 6. This is the collective home for Weather Underground's featured writeups by Dr. Jeff Masters (right), Bob Henson (left), Chris Burt, and other regular contributors.

Nearby

Квалитетот на воздухот

  Квалитетот на воздухот AQ индекс Загадувач
Not available.

Височина на снег

Station Depth Висина

Earthquake Activity

Град Distance Mag. Time & Date
Minimum magnitude displayed is 2.5.

Coastal Water Temperatures

Место Температура

Stations

Nearby Weather Stations

Локација на станицата Темп. Лични чувство за темп. со ветерот Точка на kондензација Влажност Ветер Precip. Elev Ажурирани Тип